createdAt,value
2017-11-11T00:01:13.218Z,18.12
2017-11-11T00:03:39.724Z,18.12
2017-11-11T00:06:05.926Z,18.13
2017-11-11T00:08:32.139Z,18.13
2017-11-11T00:10:58.497Z,18.15
2017-11-11T00:13:24.698Z,18.18
2017-11-11T00:15:50.890Z,18.19
2017-11-11T00:18:17.622Z,18.17
2017-11-11T00:20:44.268Z,18.20
2017-11-11T00:23:10.459Z,18.19
2017-11-11T00:25:36.718Z,18.22
2017-11-11T00:28:03.139Z,18.23
2017-11-11T00:30:29.376Z,18.24
2017-11-11T00:32:55.614Z,18.23
2017-11-11T00:35:21.835Z,18.22
2017-11-11T00:37:48.056Z,18.23
2017-11-11T00:40:14.683Z,18.22
2017-11-11T00:42:40.885Z,18.20
2017-11-11T00:45:07.303Z,18.21
2017-11-11T00:47:33.557Z,18.20
2017-11-11T00:49:59.767Z,18.20
2017-11-11T00:52:25.953Z,18.21
2017-11-11T00:54:52.289Z,18.19
2017-11-11T00:57:18.500Z,18.18
2017-11-11T00:59:44.717Z,18.20
2017-11-11T01:02:10.991Z,18.20
2017-11-11T01:04:37.204Z,18.19
2017-11-11T01:07:03.439Z,18.18
2017-11-11T01:09:29.961Z,18.17
2017-11-11T01:11:56.168Z,18.14
2017-11-11T01:14:22.366Z,18.14
2017-11-11T01:16:49.037Z,18.14
2017-11-11T01:19:15.252Z,18.13
2017-11-11T01:21:41.456Z,18.15
2017-11-11T01:24:07.948Z,18.12
2017-11-11T01:26:34.389Z,18.10
2017-11-11T01:29:00.759Z,18.12
2017-11-11T01:31:27.420Z,18.12
2017-11-11T01:33:53.645Z,18.11
2017-11-11T01:36:20.085Z,18.11
2017-11-11T01:38:46.575Z,18.11
2017-11-11T01:41:13.109Z,18.08
2017-11-11T01:43:39.559Z,18.09
2017-11-11T01:46:05.856Z,18.09
2017-11-11T01:48:32.315Z,18.09
2017-11-11T01:50:58.513Z,18.09
2017-11-11T01:53:24.850Z,18.10
2017-11-11T01:55:51.083Z,18.09
2017-11-11T01:58:17.283Z,18.09
2017-11-11T02:00:43.635Z,18.10
2017-11-11T02:03:10.112Z,18.08
2017-11-11T02:05:36.337Z,18.08
2017-11-11T02:08:03.464Z,18.08
2017-11-11T02:10:29.658Z,18.07
2017-11-11T02:12:55.872Z,18.07
2017-11-11T02:15:22.153Z,18.07
2017-11-11T02:17:48.406Z,18.05
2017-11-11T02:20:14.906Z,18.07
2017-11-11T02:22:41.232Z,18.08
2017-11-11T02:25:07.737Z,18.08
2017-11-11T02:27:33.979Z,18.06
2017-11-11T02:30:00.795Z,18.06
2017-11-11T02:32:27.051Z,18.06
2017-11-11T02:34:53.267Z,18.05
2017-11-11T02:37:19.598Z,18.03
2017-11-11T02:39:45.823Z,18.02
2017-11-11T02:42:12.400Z,18.00
2017-11-11T02:44:38.728Z,17.99
2017-11-11T02:47:05.187Z,18.02
2017-11-11T02:49:31.641Z,18.02
2017-11-11T02:51:58.007Z,18.02
2017-11-11T02:54:24.458Z,18.03
2017-11-11T02:56:50.657Z,18.02
2017-11-11T02:59:16.911Z,18.01
2017-11-11T03:01:43.351Z,18.02
2017-11-11T03:04:09.792Z,18.00
2017-11-11T03:06:36.442Z,18.00
2017-11-11T03:09:02.824Z,17.99
2017-11-11T03:11:29.027Z,17.98
2017-11-11T03:13:55.293Z,18.00
2017-11-11T03:16:21.568Z,17.98
2017-11-11T03:18:47.789Z,17.98
2017-11-11T03:21:14.688Z,17.98
2017-11-11T03:23:40.883Z,17.95
2017-11-11T03:26:07.064Z,17.96
2017-11-11T03:28:33.705Z,17.99
2017-11-11T03:30:59.901Z,17.98
2017-11-11T03:33:26.154Z,17.96
2017-11-11T03:35:52.661Z,17.96
2017-11-11T03:38:18.856Z,17.96
2017-11-11T03:40:45.064Z,17.97
2017-11-11T03:43:11.390Z,17.99
2017-11-11T03:45:37.598Z,17.98
2017-11-11T03:48:04.044Z,17.98
2017-11-11T03:50:30.565Z,17.99
2017-11-11T03:52:56.993Z,18.02
2017-11-11T03:55:23.204Z,17.99
2017-11-11T03:57:49.476Z,17.99
2017-11-11T04:00:15.692Z,17.99
2017-11-11T04:02:41.900Z,18.00
2017-11-11T04:05:08.228Z,17.99
2017-11-11T04:07:34.492Z,17.98
2017-11-11T04:10:00.702Z,17.96
2017-11-11T04:12:27.405Z,17.94
2017-11-11T04:14:53.612Z,17.94
2017-11-11T04:17:19.865Z,17.95
2017-11-11T04:19:46.251Z,17.98
2017-11-11T04:22:12.444Z,17.98
2017-11-11T04:24:38.872Z,18.00
2017-11-11T04:27:05.197Z,18.01
2017-11-11T04:29:31.424Z,17.99
2017-11-11T04:31:57.678Z,17.99
2017-11-11T04:34:24.240Z,17.96
2017-11-11T04:36:50.685Z,17.98
2017-11-11T04:39:16.896Z,17.99
2017-11-11T04:41:43.393Z,17.97
2017-11-11T04:44:09.652Z,17.99
2017-11-11T04:46:36.137Z,18.00
2017-11-11T04:49:02.706Z,17.98
2017-11-11T04:51:28.911Z,17.96
2017-11-11T04:53:55.364Z,17.95
2017-11-11T04:56:21.716Z,17.93
2017-11-11T04:58:47.922Z,17.92
2017-11-11T05:01:14.128Z,17.91
2017-11-11T05:03:40.398Z,17.91
2017-11-11T05:06:06.605Z,17.93
2017-11-11T05:08:32.856Z,17.89
2017-11-11T05:10:59.628Z,17.91
2017-11-11T05:13:25.836Z,17.90
2017-11-11T05:15:52.060Z,17.90
2017-11-11T05:18:18.325Z,17.94
2017-11-11T05:20:44.776Z,17.96
2017-11-11T05:23:10.974Z,17.95
2017-11-11T05:25:37.715Z,17.94
2017-11-11T05:28:04.144Z,17.96
2017-11-11T05:30:30.360Z,17.98
2017-11-11T05:32:56.815Z,18.00
2017-11-11T05:35:23.016Z,18.01
2017-11-11T05:37:49.208Z,18.02
2017-11-11T05:40:15.727Z,18.02
2017-11-11T05:42:41.933Z,18.02
2017-11-11T05:45:08.163Z,17.98
2017-11-11T05:47:34.511Z,17.95
2017-11-11T05:50:00.732Z,17.94
2017-11-11T05:52:26.970Z,17.95
2017-11-11T05:54:53.820Z,17.93
2017-11-11T05:57:20.036Z,17.93
2017-11-11T05:59:46.490Z,17.94
2017-11-11T06:02:12.815Z,17.94
2017-11-11T06:04:39.017Z,17.95
2017-11-11T06:07:05.748Z,17.94
2017-11-11T06:09:32.431Z,17.92
2017-11-11T06:11:58.884Z,17.94
2017-11-11T06:14:25.331Z,17.94
2017-11-11T06:16:51.689Z,17.93
2017-11-11T06:19:17.936Z,17.96
2017-11-11T06:21:44.199Z,17.93
2017-11-11T06:24:10.455Z,17.94
2017-11-11T06:26:36.646Z,17.93
2017-11-11T06:29:02.841Z,17.93
2017-11-11T06:31:29.179Z,17.94
2017-11-11T06:33:55.387Z,17.92
2017-11-11T06:36:21.708Z,17.92
2017-11-11T06:38:48.077Z,17.92
2017-11-11T06:41:14.283Z,17.92
2017-11-11T06:43:40.712Z,17.92
2017-11-11T06:46:07.299Z,17.92
2017-11-11T06:48:33.492Z,17.89
2017-11-11T06:50:59.933Z,17.84
2017-11-11T06:53:26.190Z,17.85
2017-11-11T06:55:52.391Z,17.87
2017-11-11T06:58:18.606Z,17.89
2017-11-11T07:00:45.117Z,17.89
2017-11-11T07:03:11.332Z,17.88
2017-11-11T07:05:37.516Z,17.89
2017-11-11T07:08:03.776Z,17.89
2017-11-11T07:10:30.293Z,17.90
2017-11-11T07:12:56.755Z,17.84
2017-11-11T07:15:23.083Z,17.83
2017-11-11T07:17:49.300Z,17.83
2017-11-11T07:20:15.512Z,17.84
2017-11-11T07:22:42.009Z,17.88
2017-11-11T07:25:08.215Z,17.90
2017-11-11T07:27:34.420Z,17.92
2017-11-11T07:30:00.757Z,17.93
2017-11-11T07:32:27.255Z,17.94
2017-11-11T07:34:53.467Z,17.99
2017-11-11T07:37:19.820Z,18.01
2017-11-11T07:39:46.020Z,18.03
2017-11-11T07:42:12.288Z,18.05
2017-11-11T07:44:39.087Z,18.06
2017-11-11T07:47:05.531Z,18.05
2017-11-11T07:49:31.769Z,17.98
2017-11-11T07:51:58.277Z,17.98
2017-11-11T07:54:24.467Z,17.94
2017-11-11T07:56:50.660Z,17.93
2017-11-11T07:59:16.982Z,17.94
2017-11-11T08:01:43.175Z,17.93
2017-11-11T08:04:09.362Z,17.91
2017-11-11T08:06:36.053Z,17.88
2017-11-11T08:09:02.581Z,17.88
2017-11-11T08:11:28.844Z,17.89
2017-11-11T08:13:55.767Z,17.91
2017-11-11T08:16:22.049Z,17.90
2017-11-11T08:18:48.379Z,17.92
2017-11-11T08:21:15.210Z,17.92
2017-11-11T08:23:41.711Z,17.94
2017-11-11T08:26:07.935Z,17.96
2017-11-11T08:28:34.561Z,17.93
2017-11-11T08:31:00.812Z,17.95
2017-11-11T08:33:27.060Z,17.97
2017-11-11T08:35:53.713Z,17.99
2017-11-11T08:38:20.012Z,17.98
2017-11-11T08:40:46.444Z,17.97
2017-11-11T08:43:12.817Z,17.99
2017-11-11T08:45:39.303Z,18.03
2017-11-11T08:48:05.802Z,18.06
2017-11-11T08:50:32.181Z,18.05
2017-11-11T08:52:58.372Z,18.06
2017-11-11T08:55:24.580Z,18.07
2017-11-11T08:57:50.935Z,18.08
2017-11-11T09:00:17.411Z,18.08
2017-11-11T09:02:43.599Z,18.11
2017-11-11T09:05:09.896Z,18.19
2017-11-11T09:07:36.095Z,18.26
2017-11-11T09:10:02.380Z,18.31
2017-11-11T09:12:28.774Z,18.40
2017-11-11T09:14:54.977Z,18.46
2017-11-11T09:17:21.210Z,18.47
2017-11-11T09:19:47.497Z,18.45
2017-11-11T09:22:13.702Z,18.41
2017-11-11T09:24:40.144Z,18.33
2017-11-11T09:27:07.015Z,18.24
2017-11-11T09:29:33.218Z,18.17
2017-11-11T09:31:59.432Z,18.15
2017-11-11T09:34:25.752Z,18.16
2017-11-11T09:36:51.960Z,18.17
2017-11-11T09:39:18.416Z,18.16
2017-11-11T09:41:44.639Z,18.14
2017-11-11T09:44:10.847Z,18.12
2017-11-11T09:46:37.192Z,18.11
2017-11-11T09:49:03.408Z,18.12
2017-11-11T09:51:29.626Z,18.15
2017-11-11T09:53:55.895Z,18.19
2017-11-11T09:56:22.100Z,18.24
2017-11-11T09:58:48.377Z,18.31
2017-11-11T10:01:14.996Z,18.37
2017-11-11T10:03:41.172Z,18.38
2017-11-11T10:06:07.376Z,18.31
2017-11-11T10:08:34.870Z,18.27
2017-11-11T10:11:01.209Z,18.25
2017-11-11T10:13:27.408Z,18.25
2017-11-11T10:15:53.707Z,18.30
2017-11-11T10:18:19.918Z,18.32
2017-11-11T10:20:46.112Z,18.35
2017-11-11T10:23:12.607Z,18.42
2017-11-11T10:25:38.833Z,18.48
2017-11-11T10:28:05.067Z,18.53
2017-11-11T10:30:31.801Z,18.56
2017-11-11T10:32:58.051Z,18.53
2017-11-11T10:35:24.254Z,18.47
2017-11-11T10:37:50.908Z,18.44
2017-11-11T10:40:17.110Z,18.43
2017-11-11T10:42:43.560Z,18.43
2017-11-11T10:45:09.822Z,18.50
2017-11-11T10:47:36.379Z,18.57
2017-11-11T10:50:02.912Z,18.68
2017-11-11T10:52:29.268Z,18.75
2017-11-11T10:54:55.880Z,18.80
2017-11-11T10:57:22.125Z,18.82
2017-11-11T10:59:48.512Z,18.84
2017-11-11T11:02:14.724Z,18.84
2017-11-11T11:04:40.935Z,18.84
2017-11-11T11:07:07.252Z,18.86
2017-11-11T11:09:45.507Z,18.86
2017-11-11T11:12:12.095Z,18.89
2017-11-11T11:14:38.411Z,18.87
2017-11-11T11:17:04.716Z,18.87
2017-11-11T11:19:31.561Z,18.85
2017-11-11T11:21:57.839Z,18.86
2017-11-11T11:24:24.103Z,18.87
2017-11-11T11:26:50.472Z,18.86
2017-11-11T11:29:16.782Z,18.88
2017-11-11T11:31:43.043Z,18.89
2017-11-11T11:34:10.169Z,18.91
2017-11-11T11:36:36.464Z,18.93
2017-11-11T11:39:02.803Z,18.98
2017-11-11T11:41:29.090Z,19.04
2017-11-11T11:43:55.309Z,19.09
2017-11-11T11:46:21.533Z,19.13
2017-11-11T11:48:47.805Z,19.17
2017-11-11T11:51:14.020Z,19.15
2017-11-11T11:53:40.217Z,19.12
2017-11-11T11:56:06.501Z,18.96
2017-11-11T11:58:32.935Z,18.84
2017-11-11T12:00:59.384Z,18.77
2017-11-11T12:03:26.222Z,18.71
2017-11-11T12:05:52.432Z,18.63
2017-11-11T12:08:18.641Z,18.59
2017-11-11T12:10:44.908Z,18.57
2017-11-11T12:13:11.124Z,18.57
2017-11-11T12:15:40.561Z,18.54
2017-11-11T12:18:07.038Z,18.56
2017-11-11T12:20:33.520Z,18.59
2017-11-11T12:22:59.732Z,18.66
2017-11-11T12:25:26.488Z,18.74
2017-11-11T12:27:52.714Z,18.85
2017-11-11T12:30:18.923Z,18.83
2017-11-11T12:32:45.315Z,18.78
2017-11-11T12:35:11.524Z,18.75
2017-11-11T12:37:37.736Z,18.74
2017-11-11T12:40:04.101Z,18.78
2017-11-11T12:42:30.352Z,18.83
2017-11-11T12:44:56.629Z,18.93
2017-11-11T12:47:23.225Z,19.06
2017-11-11T12:49:49.442Z,19.09
2017-11-11T12:52:15.886Z,18.97
2017-11-11T12:54:42.291Z,18.81
2017-11-11T12:57:08.550Z,18.71
2017-11-11T12:59:34.762Z,18.65
2017-11-11T13:02:01.340Z,18.60
2017-11-11T13:04:27.539Z,18.59
2017-11-11T13:06:53.769Z,18.58
2017-11-11T13:09:20.126Z,18.56
2017-11-11T13:11:46.418Z,18.55
2017-11-11T13:14:12.696Z,18.58
2017-11-11T13:16:39.140Z,18.60
2017-11-11T13:19:05.437Z,18.60
2017-11-11T13:21:31.742Z,18.59
2017-11-11T13:23:58.144Z,18.61
2017-11-11T13:26:24.409Z,18.67
2017-11-11T13:28:50.686Z,18.77
2017-11-11T13:31:17.019Z,18.93
2017-11-11T13:33:43.288Z,19.07
2017-11-11T13:36:09.607Z,19.15
2017-11-11T13:38:35.950Z,19.17
2017-11-11T13:41:02.231Z,19.07
2017-11-11T13:43:28.559Z,18.98
2017-11-11T13:45:55.243Z,18.89
2017-11-11T13:48:21.550Z,18.81
2017-11-11T13:50:47.857Z,18.76
2017-11-11T13:53:14.592Z,18.75
2017-11-11T13:55:40.864Z,18.70
2017-11-11T13:58:07.135Z,18.67
2017-11-11T14:00:33.581Z,18.67
2017-11-11T14:02:59.857Z,18.66
2017-11-11T14:07:58.097Z,18.62
2017-11-11T14:10:24.403Z,18.63
2017-11-11T14:12:50.673Z,18.63
2017-11-11T14:15:17.009Z,18.59
2017-11-11T14:17:43.316Z,18.58
2017-11-11T14:20:09.583Z,18.58
2017-11-11T14:22:35.906Z,18.59
2017-11-11T14:25:02.188Z,18.59
2017-11-11T14:27:28.470Z,18.56
2017-11-11T14:29:55.383Z,18.53
2017-11-11T14:32:21.707Z,18.49
2017-11-11T14:34:48.358Z,18.49
2017-11-11T14:37:14.813Z,18.46
2017-11-11T14:39:41.148Z,18.46
2017-11-11T14:42:07.421Z,18.46
2017-11-11T14:44:33.953Z,18.44
2017-11-11T14:47:00.261Z,18.43
2017-11-11T14:49:26.778Z,18.42
2017-11-11T14:51:53.564Z,18.39
2017-11-11T14:54:19.862Z,18.38
2017-11-11T14:56:46.136Z,18.39
2017-11-11T14:59:12.505Z,18.38
2017-11-11T15:01:38.802Z,18.35
2017-11-11T15:04:05.077Z,18.36
2017-11-11T15:06:31.874Z,18.37
2017-11-11T15:08:58.262Z,18.34
2017-11-11T15:11:24.595Z,18.35
2017-11-11T15:13:51.393Z,18.34
2017-11-11T15:16:17.725Z,18.33
2017-11-11T15:18:44.358Z,18.32
2017-11-11T15:21:11.389Z,18.34
2017-11-11T15:23:37.738Z,18.35
2017-11-11T15:26:04.229Z,18.33
2017-11-11T15:28:30.585Z,18.31
2017-11-11T15:30:57.232Z,18.31
2017-11-11T15:33:23.507Z,18.30
2017-11-11T15:35:49.837Z,18.30
2017-11-11T15:38:16.163Z,18.29
2017-11-11T15:40:42.416Z,18.27
2017-11-11T15:43:08.775Z,18.27
2017-11-11T15:45:35.051Z,18.29
2017-11-11T15:48:01.365Z,18.26
2017-11-11T15:50:27.812Z,18.25
2017-11-11T15:52:54.114Z,18.25
2017-11-11T15:55:20.439Z,18.27
2017-11-11T15:57:46.810Z,18.25
2017-11-11T16:00:13.111Z,18.22
2017-11-11T16:02:39.381Z,18.21
2017-11-11T16:05:06.042Z,18.22
2017-11-11T16:07:32.335Z,18.24
2017-11-11T16:09:58.605Z,18.22
2017-11-11T16:12:25.240Z,18.22
2017-11-11T16:14:51.512Z,18.23
2017-11-11T16:17:17.788Z,18.23
2017-11-11T16:19:44.417Z,18.22
2017-11-11T16:22:10.711Z,18.24
2017-11-11T16:24:37.240Z,18.23
2017-11-11T16:27:03.938Z,18.23
2017-11-11T16:29:30.316Z,18.23
2017-11-11T16:31:56.627Z,18.22
2017-11-11T16:34:22.989Z,18.22
2017-11-11T16:36:49.310Z,18.23
2017-11-11T16:39:15.784Z,18.24
2017-11-11T16:41:42.211Z,18.23
2017-11-11T16:44:08.705Z,18.20
2017-11-11T16:46:35.003Z,18.20
2017-11-11T16:49:01.645Z,18.21
2017-11-11T16:51:27.958Z,18.22
2017-11-11T16:53:54.523Z,18.21
2017-11-11T16:56:21.354Z,18.21
2017-11-11T16:58:47.624Z,18.19
2017-11-11T17:01:14.145Z,18.19
2017-11-11T17:03:40.550Z,18.19
2017-11-11T17:06:06.814Z,18.19
2017-11-11T17:08:33.322Z,18.17
2017-11-11T17:10:59.711Z,18.18
2017-11-11T17:13:25.989Z,18.18
2017-11-11T17:15:52.256Z,18.19
2017-11-11T17:18:19.360Z,18.16
2017-11-11T17:20:45.624Z,18.16
2017-11-11T17:23:11.901Z,18.14
2017-11-11T17:25:38.608Z,18.13
2017-11-11T17:28:04.912Z,18.14
2017-11-11T17:30:31.181Z,18.15
2017-11-11T17:32:57.810Z,18.14
2017-11-11T17:35:24.090Z,18.14
2017-11-11T17:37:50.649Z,18.11
2017-11-11T17:40:17.038Z,18.12
2017-11-11T17:42:43.498Z,18.11
2017-11-11T17:45:09.764Z,18.10
2017-11-11T17:47:36.161Z,18.10
2017-11-11T17:50:02.605Z,18.08
2017-11-11T17:52:28.930Z,18.07
2017-11-11T17:54:55.557Z,18.09
2017-11-11T17:57:22.183Z,18.10
2017-11-11T17:59:48.468Z,18.10
2017-11-11T18:02:14.708Z,18.11
2017-11-11T18:04:40.974Z,18.10
2017-11-11T18:07:07.418Z,18.10
2017-11-11T18:09:33.617Z,18.08
2017-11-11T18:12:00.219Z,18.06
2017-11-11T18:14:26.419Z,18.05
2017-11-11T18:16:52.628Z,18.05
2017-11-11T18:19:19.311Z,18.07
2017-11-11T18:21:45.584Z,18.08
2017-11-11T18:24:11.883Z,18.07
2017-11-11T18:26:38.760Z,18.07
2017-11-11T18:29:05.055Z,18.07
2017-11-11T18:31:31.344Z,18.07
2017-11-11T18:33:57.782Z,18.07
2017-11-11T18:36:24.058Z,18.08
2017-11-11T18:38:50.560Z,18.07
2017-11-11T18:41:17.424Z,18.07
2017-11-11T18:43:43.697Z,18.07
2017-11-11T18:46:09.978Z,18.06
2017-11-11T18:48:36.373Z,18.10
2017-11-11T18:51:02.639Z,18.13
2017-11-11T18:53:29.004Z,18.12
2017-11-11T18:55:55.421Z,18.09
2017-11-11T18:58:21.695Z,18.08
2017-11-11T19:00:47.965Z,18.08
2017-11-11T19:03:14.457Z,18.09
2017-11-11T19:05:40.716Z,18.08
2017-11-11T19:08:07.023Z,18.09
2017-11-11T19:10:33.745Z,18.08
2017-11-11T19:13:00.013Z,18.06
2017-11-11T19:15:26.305Z,18.08
2017-11-11T19:17:52.636Z,18.06
2017-11-11T19:20:18.919Z,18.07
2017-11-11T19:22:45.194Z,18.07
2017-11-11T19:25:11.510Z,18.07
2017-11-11T19:27:37.803Z,18.10
2017-11-11T19:30:04.135Z,18.10
2017-11-11T19:32:30.410Z,18.10
2017-11-11T19:34:56.717Z,18.10
2017-11-11T19:37:23.032Z,18.09
2017-11-11T19:39:49.295Z,18.07
2017-11-11T19:42:15.576Z,18.06
2017-11-11T19:44:41.905Z,18.05
2017-11-11T19:47:08.397Z,18.07
2017-11-11T19:49:34.685Z,18.07
2017-11-11T19:52:01.560Z,18.08
2017-11-11T19:54:27.851Z,18.05
2017-11-11T19:56:54.092Z,18.04
2017-11-11T19:59:20.442Z,18.05
2017-11-11T20:01:46.727Z,18.04
2017-11-11T20:04:13.326Z,18.03
2017-11-11T20:06:40.119Z,18.03
2017-11-11T20:09:06.636Z,18.03
2017-11-11T20:11:32.900Z,18.02
2017-11-11T20:13:59.325Z,18.02
2017-11-11T20:16:25.583Z,18.02
2017-11-11T20:18:51.875Z,17.98
2017-11-11T20:21:18.227Z,17.99
2017-11-11T20:23:44.494Z,17.98
2017-11-11T20:26:10.749Z,18.00
2017-11-11T20:28:37.513Z,17.99
2017-11-11T20:31:03.788Z,18.00
2017-11-11T20:33:30.089Z,18.01
2017-11-11T20:35:56.421Z,17.99
2017-11-11T20:38:22.674Z,17.94
2017-11-11T20:40:48.951Z,17.94
2017-11-11T20:43:15.507Z,17.93
2017-11-11T20:45:42.064Z,17.96
2017-11-11T20:48:08.340Z,17.99
2017-11-11T20:50:35.051Z,17.97
2017-11-11T20:53:01.372Z,17.95
2017-11-11T20:55:27.730Z,17.95
2017-11-11T20:57:54.147Z,17.94
2017-11-11T21:00:20.409Z,17.94
2017-11-11T21:02:46.682Z,17.95
2017-11-11T21:05:13.054Z,17.95
2017-11-11T21:07:39.412Z,17.94
2017-11-11T21:10:05.687Z,17.93
2017-11-11T21:12:32.014Z,17.90
2017-11-11T21:14:58.295Z,17.93
2017-11-11T21:17:25.036Z,17.91
2017-11-11T21:19:51.313Z,17.89
2017-11-11T21:22:17.587Z,17.91
2017-11-11T21:24:44.003Z,17.89
2017-11-11T21:27:10.251Z,17.90
2017-11-11T21:29:36.522Z,17.89
2017-11-11T21:32:02.894Z,17.89
2017-11-11T21:34:29.194Z,17.89
2017-11-11T21:36:55.468Z,17.90
2017-11-11T21:39:22.372Z,17.89
2017-11-11T21:41:48.629Z,17.90
2017-11-11T21:44:14.919Z,17.89
2017-11-11T21:46:41.340Z,17.91
2017-11-11T21:49:07.649Z,17.90
2017-11-11T21:51:33.927Z,17.91
2017-11-11T21:54:00.330Z,17.92
2017-11-11T21:56:26.700Z,17.90
2017-11-11T21:58:52.993Z,17.88
2017-11-11T22:01:19.286Z,17.90
2017-11-11T22:03:45.911Z,17.90
2017-11-11T22:06:12.205Z,17.91
2017-11-11T22:08:38.489Z,17.91
2017-11-11T22:11:05.111Z,17.90
2017-11-11T22:13:31.389Z,17.89
2017-11-11T22:15:57.663Z,17.87
2017-11-11T22:18:23.990Z,17.86
2017-11-11T22:20:50.266Z,17.86
2017-11-11T22:23:16.519Z,17.88
2017-11-11T22:25:42.937Z,17.86
2017-11-11T22:28:09.206Z,17.85
2017-11-11T22:30:35.527Z,17.86
2017-11-11T22:33:02.223Z,17.87
2017-11-11T22:35:28.495Z,17.85
2017-11-11T22:37:54.772Z,17.86
2017-11-11T22:40:21.165Z,17.88
2017-11-11T22:42:47.445Z,17.89
2017-11-11T22:45:13.738Z,17.89
2017-11-11T22:47:40.450Z,17.87
2017-11-11T22:50:06.724Z,17.88
2017-11-11T22:52:32.982Z,17.88
2017-11-11T22:54:59.387Z,17.89
2017-11-11T22:57:25.698Z,17.90
2017-11-11T22:59:51.995Z,17.90
2017-11-11T23:02:18.612Z,17.88
2017-11-11T23:04:44.929Z,17.86
2017-11-11T23:07:11.204Z,17.82
2017-11-11T23:09:37.529Z,17.84
2017-11-11T23:12:03.833Z,17.84
2017-11-11T23:14:30.352Z,17.82
2017-11-11T23:16:56.689Z,17.80
2017-11-11T23:19:22.876Z,17.80
2017-11-11T23:21:49.115Z,17.80
2017-11-11T23:24:15.378Z,17.81
2017-11-11T23:26:41.590Z,17.80
2017-11-11T23:29:07.813Z,17.79
2017-11-11T23:31:34.138Z,17.77
2017-11-11T23:34:00.339Z,17.78
2017-11-11T23:36:26.516Z,17.80
2017-11-11T23:38:52.778Z,17.79
2017-11-11T23:41:19.384Z,17.76
2017-11-11T23:43:45.584Z,17.80
2017-11-11T23:46:11.923Z,17.79
2017-11-11T23:48:38.132Z,17.79
2017-11-11T23:51:04.375Z,17.77
2017-11-11T23:53:30.706Z,17.76
2017-11-11T23:55:56.913Z,17.75
2017-11-11T23:58:23.436Z,17.74
